SAS55Y EKCH-KMIA
Flight info
| Callsign | SAS55Y |
|---|---|
| Flight time | N/A |
| Altitude | 38000 |
| Route | ODN DCT PETIL DCT SURAT DCT ZOFAT DCT MOLAK DCT NEBIN/M085F390 DCT 5330N02000W 5230N03000W 51N040W 4930N05000W DCT IBERG/N0479F400 N364A TUSKY DCT FOXBO DCT RIFLE DCT HEADI Q97 KALDA Q101 SKARP Y313 HOAGG BNFSH2 |
| Aircraft | A359/H-SDE2E3GHIJ3J4J5LM1ORWXY/LB1D1 |
Departure
| Time | 2026-05-06 21:10 |
|---|---|
| Airport | Copenhagen Kastrup Airport (EKCH) |
Arrival
| Time | N/A |
|---|---|
| Airport | Miami International Airport (KMIA) |
| Time | Latitude | Longitude | Altitude | Speed | Heading |
|---|---|---|---|---|---|
| 2026-05-06 20:44 | 55.62570 | 12.65069 | 23 ft | 0 kts | 269° |
| 2026-05-06 20:56 | 55.62570 | 12.65078 | 23 ft | 2 kts | 267° |
| 2026-05-06 20:56 | 55.62571 | 12.65097 | 9 ft | 2 kts | 266° |
| 2026-05-06 20:57 | 55.62573 | 12.65126 | 10 ft | 2 kts | 263° |
| 2026-05-06 20:57 | 55.62575 | 12.65155 | 33 ft | 2 kts | 255° |
| 2026-05-06 20:57 | 55.62581 | 12.65181 | 28 ft | 2 kts | 227° |
| 2026-05-06 20:57 | 55.62595 | 12.65195 | 27 ft | 2 kts | 183° |
| 2026-05-06 20:58 | 55.62600 | 12.65196 | 26 ft | 0 kts | 179° |
| 2026-05-06 21:01 | 55.62599 | 12.65196 | 23 ft | 2 kts | 178° |
| 2026-05-06 21:01 | 55.62522 | 12.65199 | 26 ft | 13 kts | 181° |
| 2026-05-06 21:02 | 55.62429 | 12.65205 | 26 ft | 14 kts | 176° |
| 2026-05-06 21:02 | 55.62339 | 12.65216 | 27 ft | 17 kts | 174° |
| 2026-05-06 21:02 | 55.62299 | 12.65303 | 27 ft | 13 kts | 99° |
| 2026-05-06 21:02 | 55.62295 | 12.65468 | 26 ft | 14 kts | 90° |
| 2026-05-06 21:03 | 55.62295 | 12.65585 | 26 ft | 15 kts | 90° |
| 2026-05-06 21:03 | 55.62298 | 12.65741 | 26 ft | 16 kts | 89° |
| 2026-05-06 21:04 | 55.62305 | 12.65938 | 27 ft | 16 kts | 73° |
| 2026-05-06 21:04 | 55.62374 | 12.66084 | 28 ft | 16 kts | 40° |
| 2026-05-06 21:04 | 55.62450 | 12.66203 | 26 ft | 17 kts | 41° |
| 2026-05-06 21:04 | 55.62547 | 12.66354 | 26 ft | 19 kts | 41° |
| 2026-05-06 21:05 | 55.62598 | 12.66438 | 26 ft | 0 kts | 50° |
| 2026-05-06 21:05 | 55.62602 | 12.66446 | 28 ft | 6 kts | 48° |
| 2026-05-06 21:05 | 55.62624 | 12.66534 | 26 ft | 8 kts | 86° |
| 2026-05-06 21:05 | 55.62617 | 12.66559 | 27 ft | 0 kts | 117° |
| 2026-05-06 21:07 | 55.62616 | 12.66562 | 27 ft | 2 kts | 117° |
| 2026-05-06 21:07 | 55.62571 | 12.66669 | 26 ft | 14 kts | 140° |
| 2026-05-06 21:07 | 55.62488 | 12.66673 | 29 ft | 12 kts | 213° |
| 2026-05-06 21:08 | 55.62443 | 12.66606 | 29 ft | 0 kts | 220° |
| 2026-05-06 21:09 | 55.62359 | 12.66475 | 27 ft | 47 kts | 221° |
| 2026-05-06 21:09 | 55.61956 | 12.65853 | 27 ft | 105 kts | 220° |
| 2026-05-06 21:10 | 55.61274 | 12.64795 | 27 ft | 154 kts | 220° |
| 2026-05-06 21:10 | 55.60419 | 12.63471 | 397 ft | 164 kts | 216° |
| 2026-05-06 21:10 | 55.59551 | 12.62184 | 1052 ft | 160 kts | 213° |
| 2026-05-06 21:10 | 55.58647 | 12.60859 | 1364 ft | 179 kts | 217° |
| 2026-05-06 21:11 | 55.57656 | 12.59318 | 1572 ft | 197 kts | 219° |
| 2026-05-06 21:11 | 55.56630 | 12.57668 | 1992 ft | 208 kts | 221° |
| 2026-05-06 21:11 | 55.55831 | 12.55382 | 2182 ft | 234 kts | 255° |
| 2026-05-06 21:11 | 55.55826 | 12.52390 | 2407 ft | 256 kts | 278° |
| 2026-05-06 21:12 | 55.56150 | 12.49225 | 2887 ft | 265 kts | 281° |
| 2026-05-06 21:12 | 55.56501 | 12.46015 | 3537 ft | 268 kts | 281° |
| 2026-05-06 21:12 | 55.56838 | 12.42770 | 4214 ft | 269 kts | 281° |
| 2026-05-06 21:12 | 55.57161 | 12.39511 | 4894 ft | 270 kts | 281° |
| 2026-05-06 21:13 | 55.57477 | 12.36233 | 5549 ft | 271 kts | 281° |
| 2026-05-06 21:13 | 55.57787 | 12.32951 | 6264 ft | 270 kts | 281° |
| 2026-05-06 21:13 | 55.58008 | 12.29641 | 6921 ft | 272 kts | 276° |
| 2026-05-06 21:13 | 55.58130 | 12.26294 | 7529 ft | 274 kts | 274° |
| 2026-05-06 21:14 | 55.58234 | 12.22922 | 8166 ft | 275 kts | 274° |
| 2026-05-06 21:14 | 55.58337 | 12.19537 | 8828 ft | 276 kts | 274° |
| 2026-05-06 21:14 | 55.58441 | 12.16138 | 9487 ft | 277 kts | 274° |
| 2026-05-06 21:14 | 55.58546 | 12.12729 | 10141 ft | 279 kts | 273° |
| 2026-05-06 21:15 | 55.58654 | 12.09235 | 10449 ft | 292 kts | 273° |
| 2026-05-06 21:15 | 55.58766 | 12.05555 | 10658 ft | 308 kts | 273° |
| 2026-05-06 21:15 | 55.58883 | 12.01690 | 10898 ft | 322 kts | 273° |
| 2026-05-06 21:15 | 55.59004 | 11.97646 | 11122 ft | 336 kts | 273° |
| 2026-05-06 21:16 | 55.59128 | 11.93448 | 11340 ft | 348 kts | 273° |
| 2026-05-06 21:16 | 55.59255 | 11.89100 | 11563 ft | 360 kts | 273° |
| 2026-05-06 21:16 | 55.59385 | 11.84638 | 11909 ft | 367 kts | 273° |
| 2026-05-06 21:16 | 55.59514 | 11.80109 | 12373 ft | 370 kts | 272° |
| 2026-05-06 21:17 | 55.59643 | 11.75557 | 12882 ft | 372 kts | 272° |
| 2026-05-06 21:17 | 55.59768 | 11.71047 | 13384 ft | 373 kts | 272° |
| 2026-05-06 21:17 | 55.59896 | 11.66376 | 13789 ft | 377 kts | 272° |
| 2026-05-06 21:17 | 55.60022 | 11.61738 | 14228 ft | 379 kts | 272° |
| 2026-05-06 21:18 | 55.60146 | 11.57070 | 14655 ft | 381 kts | 272° |
| 2026-05-06 21:18 | 55.60270 | 11.52375 | 15083 ft | 383 kts | 272° |
| 2026-05-06 21:18 | 55.60392 | 11.47667 | 15528 ft | 384 kts | 272° |
| 2026-05-06 21:18 | 55.60512 | 11.42948 | 15969 ft | 386 kts | 272° |
| 2026-05-06 21:19 | 55.60565 | 11.38199 | 16398 ft | 387 kts | 268° |
| 2026-05-06 21:19 | 55.60451 | 11.33432 | 16843 ft | 388 kts | 266° |
| 2026-05-06 21:19 | 55.60298 | 11.28663 | 17282 ft | 390 kts | 266° |
| 2026-05-06 21:19 | 55.60140 | 11.23867 | 17693 ft | 391 kts | 266° |
| 2026-05-06 21:20 | 55.59980 | 11.19048 | 18102 ft | 394 kts | 266° |
| 2026-05-06 21:20 | 55.59820 | 11.14207 | 18476 ft | 396 kts | 266° |
| 2026-05-06 21:20 | 55.59657 | 11.09343 | 18822 ft | 397 kts | 266° |
| 2026-05-06 21:20 | 55.59494 | 11.04524 | 19170 ft | 398 kts | 265° |
| 2026-05-06 21:21 | 55.59325 | 10.99563 | 19526 ft | 400 kts | 265° |
| 2026-05-06 21:21 | 55.59158 | 10.94716 | 19871 ft | 401 kts | 265° |
| 2026-05-06 21:21 | 55.58986 | 10.89775 | 20211 ft | 403 kts | 265° |
| 2026-05-06 21:21 | 55.58810 | 10.84773 | 20558 ft | 404 kts | 265° |
| 2026-05-06 21:22 | 55.58635 | 10.79867 | 20904 ft | 405 kts | 265° |
| 2026-05-06 21:22 | 55.58455 | 10.74883 | 21229 ft | 407 kts | 265° |
| 2026-05-06 21:22 | 55.58273 | 10.69892 | 21571 ft | 408 kts | 265° |
| 2026-05-06 21:22 | 55.58088 | 10.64873 | 21905 ft | 410 kts | 264° |
| 2026-05-06 21:23 | 55.57902 | 10.59834 | 22242 ft | 411 kts | 264° |
| 2026-05-06 21:23 | 55.57718 | 10.54777 | 22579 ft | 413 kts | 264° |
| 2026-05-06 21:23 | 55.57535 | 10.49712 | 22895 ft | 415 kts | 264° |
| 2026-05-06 21:23 | 55.57356 | 10.44616 | 23240 ft | 416 kts | 264° |
| 2026-05-06 21:24 | 55.57178 | 10.39502 | 23563 ft | 418 kts | 264° |
| 2026-05-06 21:24 | 55.57002 | 10.34367 | 23840 ft | 419 kts | 264° |
| 2026-05-06 21:24 | 55.56826 | 10.29212 | 24111 ft | 421 kts | 264° |
| 2026-05-06 21:24 | 55.56649 | 10.24039 | 24388 ft | 423 kts | 264° |
| 2026-05-06 21:25 | 55.56472 | 10.18851 | 24655 ft | 424 kts | 264° |
| 2026-05-06 21:25 | 55.56295 | 10.13648 | 24947 ft | 425 kts | 264° |
| 2026-05-06 21:25 | 55.56116 | 10.08424 | 25217 ft | 427 kts | 264° |
| 2026-05-06 21:25 | 55.55937 | 10.03190 | 25580 ft | 427 kts | 264° |
| 2026-05-06 21:26 | 55.55758 | 9.97954 | 25866 ft | 428 kts | 264° |
| 2026-05-06 21:26 | 55.55576 | 9.92697 | 26131 ft | 430 kts | 264° |
| 2026-05-06 21:26 | 55.55391 | 9.87409 | 26415 ft | 431 kts | 264° |
| 2026-05-06 21:26 | 55.55205 | 9.82115 | 26705 ft | 433 kts | 264° |
| 2026-05-06 21:27 | 55.55018 | 9.76810 | 26990 ft | 434 kts | 264° |
| 2026-05-06 21:27 | 55.54829 | 9.71474 | 27272 ft | 436 kts | 264° |
| 2026-05-06 21:27 | 55.54638 | 9.66117 | 27560 ft | 438 kts | 264° |
| 2026-05-06 21:27 | 55.54446 | 9.60745 | 27848 ft | 439 kts | 264° |
| 2026-05-06 21:28 | 55.54253 | 9.55355 | 28137 ft | 441 kts | 264° |
| 2026-05-06 21:28 | 55.54058 | 9.49942 | 28455 ft | 442 kts | 264° |
| 2026-05-06 21:28 | 55.53859 | 9.44521 | 28758 ft | 443 kts | 264° |
| 2026-05-06 21:28 | 55.53659 | 9.39071 | 29039 ft | 445 kts | 264° |
| 2026-05-06 21:29 | 55.53459 | 9.33619 | 29283 ft | 447 kts | 264° |
| 2026-05-06 21:29 | 55.53256 | 9.28132 | 29552 ft | 448 kts | 264° |
| 2026-05-06 21:29 | 55.53052 | 9.22629 | 29816 ft | 450 kts | 264° |
| 2026-05-06 21:29 | 55.52846 | 9.17108 | 30061 ft | 452 kts | 264° |
| 2026-05-06 21:30 | 55.52639 | 9.11571 | 30306 ft | 452 kts | 264° |
| 2026-05-06 21:30 | 55.52430 | 9.06042 | 30618 ft | 452 kts | 264° |
| 2026-05-06 21:30 | 55.52216 | 9.00520 | 30926 ft | 451 kts | 264° |
| 2026-05-06 21:30 | 55.51999 | 8.95001 | 31244 ft | 451 kts | 264° |
| 2026-05-06 21:31 | 55.51777 | 8.89491 | 31584 ft | 450 kts | 264° |
| 2026-05-06 21:31 | 55.51553 | 8.83995 | 31920 ft | 449 kts | 264° |
| 2026-05-06 21:31 | 55.51327 | 8.78511 | 32214 ft | 448 kts | 264° |
| 2026-05-06 21:31 | 55.51099 | 8.73026 | 32485 ft | 448 kts | 264° |
| 2026-05-06 21:32 | 55.50869 | 8.67544 | 32770 ft | 447 kts | 264° |
| 2026-05-06 21:32 | 55.50403 | 8.56614 | 33349 ft | 447 kts | 264° |
| 2026-05-06 21:32 | 55.50168 | 8.51150 | 33616 ft | 446 kts | 264° |
| 2026-05-06 21:33 | 55.49932 | 8.45704 | 33901 ft | 446 kts | 264° |
| 2026-05-06 21:33 | 55.49694 | 8.40247 | 34133 ft | 446 kts | 264° |
| 2026-05-06 21:33 | 55.49450 | 8.34794 | 34245 ft | 448 kts | 264° |
| 2026-05-06 21:33 | 55.49202 | 8.29317 | 34455 ft | 447 kts | 264° |
| 2026-05-06 21:34 | 55.48954 | 8.23858 | 34683 ft | 447 kts | 264° |
| 2026-05-06 21:34 | 55.48707 | 8.18461 | 34855 ft | 448 kts | 264° |
| 2026-05-06 21:34 | 55.48451 | 8.12917 | 35023 ft | 448 kts | 264° |
| 2026-05-06 21:34 | 55.48197 | 8.07455 | 35196 ft | 449 kts | 264° |
| 2026-05-06 21:35 | 55.47940 | 8.01978 | 35376 ft | 449 kts | 264° |
| 2026-05-06 21:35 | 55.47684 | 7.96559 | 35550 ft | 449 kts | 264° |
| 2026-05-06 21:35 | 55.47423 | 7.91067 | 35715 ft | 450 kts | 264° |
| 2026-05-06 21:35 | 55.47156 | 7.85506 | 35880 ft | 450 kts | 264° |
| 2026-05-06 21:36 | 55.46894 | 7.80075 | 36031 ft | 451 kts | 264° |
| 2026-05-06 21:36 | 55.46626 | 7.74582 | 36259 ft | 450 kts | 264° |
| 2026-05-06 21:36 | 55.46354 | 7.69094 | 36434 ft | 450 kts | 264° |
| 2026-05-06 21:36 | 55.46080 | 7.63609 | 36562 ft | 450 kts | 263° |
| 2026-05-06 21:37 | 55.45802 | 7.58107 | 36700 ft | 451 kts | 263° |
| 2026-05-06 21:37 | 55.45523 | 7.52597 | 36836 ft | 452 kts | 263° |
| 2026-05-06 21:37 | 55.45240 | 7.47085 | 36978 ft | 452 kts | 263° |
| 2026-05-06 21:37 | 55.44956 | 7.41575 | 37094 ft | 452 kts | 263° |
| 2026-05-06 21:38 | 55.44669 | 7.36045 | 37227 ft | 453 kts | 263° |
| 2026-05-06 21:38 | 55.44380 | 7.30531 | 37359 ft | 453 kts | 263° |
| 2026-05-06 21:38 | 55.44089 | 7.25004 | 37475 ft | 453 kts | 263° |
| 2026-05-06 21:38 | 55.43795 | 7.19482 | 37592 ft | 454 kts | 263° |
| 2026-05-06 21:39 | 55.43189 | 7.08391 | 37806 ft | 455 kts | 263° |
| 2026-05-06 21:39 | 55.42883 | 7.02852 | 37925 ft | 455 kts | 263° |
| 2026-05-06 21:39 | 55.42574 | 6.97294 | 37925 ft | 458 kts | 263° |
| 2026-05-06 21:40 | 55.41947 | 6.86086 | 37996 ft | 461 kts | 263° |
| 2026-05-06 21:40 | 55.41312 | 6.74843 | 38026 ft | 462 kts | 263° |
| 2026-05-06 21:41 | 55.40670 | 6.63591 | 38023 ft | 462 kts | 263° |
| 2026-05-06 21:41 | 55.40112 | 6.54170 | 38018 ft | 463 kts | 263° |
| 2026-05-06 21:42 | 55.39439 | 6.42981 | 38025 ft | 463 kts | 263° |
| 2026-05-06 21:42 | 55.38756 | 6.31721 | 38023 ft | 463 kts | 263° |
| 2026-05-06 21:43 | 55.38069 | 6.20456 | 38031 ft | 463 kts | 263° |
| 2026-05-06 21:43 | 55.37378 | 6.09189 | 38034 ft | 463 kts | 263° |
| 2026-05-06 21:44 | 55.36668 | 5.97920 | 38030 ft | 464 kts | 263° |
| 2026-05-06 21:44 | 55.35948 | 5.86640 | 38037 ft | 465 kts | 263° |
| 2026-05-06 21:45 | 55.35221 | 5.75354 | 38028 ft | 465 kts | 263° |
| 2026-05-06 21:45 | 55.34488 | 5.64062 | 38047 ft | 465 kts | 263° |
| 2026-05-06 21:46 | 55.33752 | 5.52781 | 38035 ft | 465 kts | 263° |
| 2026-05-06 21:46 | 55.32990 | 5.41504 | 38043 ft | 466 kts | 263° |
| 2026-05-06 21:47 | 55.32212 | 5.30203 | 38042 ft | 466 kts | 263° |
| 2026-05-06 21:47 | 55.31435 | 5.18916 | 38043 ft | 466 kts | 263° |
| 2026-05-06 21:48 | 55.31741 | 5.07590 | 38041 ft | 467 kts | 279° |
| 2026-05-06 21:48 | 55.32675 | 4.96285 | 38044 ft | 470 kts | 276° |
| 2026-05-06 21:49 | 55.33398 | 4.84822 | 38048 ft | 474 kts | 275° |
| 2026-05-06 21:49 | 55.34100 | 4.73348 | 38047 ft | 477 kts | 275° |
| 2026-05-06 21:50 | 55.34831 | 4.61743 | 38052 ft | 479 kts | 275° |
| 2026-05-06 21:50 | 55.35569 | 4.50106 | 38049 ft | 480 kts | 275° |
| 2026-05-06 21:51 | 55.36301 | 4.38445 | 38053 ft | 480 kts | 275° |
| 2026-05-06 21:51 | 55.37022 | 4.26751 | 38053 ft | 481 kts | 275° |
| 2026-05-06 21:52 | 55.37731 | 4.15060 | 38053 ft | 481 kts | 275° |
| 2026-05-06 21:52 | 55.38428 | 4.03365 | 38055 ft | 481 kts | 275° |
| 2026-05-06 21:53 | 55.39114 | 3.91658 | 38045 ft | 481 kts | 275° |
| 2026-05-06 21:53 | 55.39789 | 3.79950 | 38045 ft | 481 kts | 275° |
| 2026-05-06 21:54 | 55.40454 | 3.68221 | 38046 ft | 482 kts | 275° |
| 2026-05-06 21:54 | 55.41108 | 3.56490 | 38044 ft | 482 kts | 275° |
| 2026-05-06 21:55 | 55.41750 | 3.44754 | 38056 ft | 482 kts | 275° |
| 2026-05-06 21:55 | 55.42381 | 3.33019 | 38056 ft | 482 kts | 275° |
| 2026-05-06 21:56 | 55.42999 | 3.21287 | 38065 ft | 481 kts | 275° |
| 2026-05-06 21:56 | 55.43607 | 3.09562 | 38073 ft | 481 kts | 275° |
| 2026-05-06 21:57 | 55.44204 | 2.97838 | 38072 ft | 481 kts | 275° |
| 2026-05-06 21:57 | 55.44789 | 2.86105 | 38075 ft | 481 kts | 275° |
| 2026-05-06 21:58 | 55.45362 | 2.74374 | 38076 ft | 480 kts | 275° |
| 2026-05-06 21:58 | 55.45924 | 2.62657 | 38075 ft | 480 kts | 275° |
| 2026-05-06 21:59 | 55.46470 | 2.51023 | 38075 ft | 479 kts | 275° |
| 2026-05-06 21:59 | 55.47012 | 2.39232 | 38074 ft | 479 kts | 274° |
| 2026-05-06 22:00 | 55.47536 | 2.27612 | 38078 ft | 479 kts | 274° |
| 2026-05-06 22:00 | 55.48052 | 2.15899 | 38077 ft | 479 kts | 274° |
| 2026-05-06 22:01 | 55.48556 | 2.04186 | 38075 ft | 479 kts | 274° |
| 2026-05-06 22:01 | 55.49050 | 1.92475 | 38075 ft | 479 kts | 274° |
| 2026-05-06 22:02 | 55.49533 | 1.80750 | 38074 ft | 479 kts | 274° |
| 2026-05-06 22:02 | 55.50004 | 1.69038 | 38074 ft | 479 kts | 274° |
| 2026-05-06 22:03 | 55.50462 | 1.57321 | 38074 ft | 478 kts | 274° |
| 2026-05-06 22:03 | 55.50911 | 1.45612 | 38076 ft | 478 kts | 274° |
| 2026-05-06 22:04 | 55.51348 | 1.33915 | 38073 ft | 478 kts | 274° |
| 2026-05-06 22:04 | 55.51773 | 1.22221 | 38084 ft | 478 kts | 274° |
| 2026-05-06 22:05 | 55.52187 | 1.10527 | 38067 ft | 476 kts | 274° |
| 2026-05-06 22:05 | 55.52588 | 0.98867 | 38073 ft | 475 kts | 274° |
| 2026-05-06 22:06 | 55.52977 | 0.87228 | 38072 ft | 475 kts | 274° |
| 2026-05-06 22:06 | 55.53356 | 0.75589 | 38072 ft | 475 kts | 274° |
| 2026-05-06 22:07 | 55.53723 | 0.63961 | 38073 ft | 475 kts | 274° |
| 2026-05-06 22:07 | 55.54079 | 0.52317 | 38069 ft | 475 kts | 274° |
| 2026-05-06 22:08 | 55.54425 | 0.40670 | 38069 ft | 476 kts | 273° |
| 2026-05-06 22:08 | 55.54760 | 0.28998 | 38069 ft | 476 kts | 273° |
| 2026-05-06 22:09 | 55.55084 | 0.17321 | 38070 ft | 476 kts | 273° |
| 2026-05-06 22:09 | 55.55397 | 0.05649 | 38070 ft | 476 kts | 273° |
| 2026-05-06 22:10 | 55.55699 | -0.06035 | 38068 ft | 476 kts | 273° |
| 2026-05-06 22:10 | 55.55991 | -0.17744 | 38070 ft | 476 kts | 273° |
| 2026-05-06 22:11 | 55.56269 | -0.29344 | 38067 ft | 477 kts | 273° |
| 2026-05-06 22:11 | 55.56538 | -0.41046 | 38067 ft | 477 kts | 273° |
| 2026-05-06 22:12 | 55.56795 | -0.52738 | 38061 ft | 477 kts | 273° |
| 2026-05-06 22:12 | 55.57042 | -0.64452 | 38061 ft | 477 kts | 273° |
| 2026-05-06 22:13 | 55.57278 | -0.76161 | 38061 ft | 477 kts | 272° |
| 2026-05-06 22:13 | 55.57502 | -0.87870 | 38061 ft | 477 kts | 272° |
| 2026-05-06 22:14 | 55.57716 | -0.99576 | 38059 ft | 477 kts | 272° |
| 2026-05-06 22:14 | 55.57918 | -1.11293 | 38059 ft | 477 kts | 272° |
| 2026-05-06 22:15 | 55.58108 | -1.22984 | 38055 ft | 476 kts | 272° |
| 2026-05-06 22:15 | 55.58288 | -1.34663 | 38053 ft | 475 kts | 272° |
| 2026-05-06 22:16 | 55.58456 | -1.46339 | 38053 ft | 475 kts | 272° |
| 2026-05-06 22:16 | 55.58613 | -1.58001 | 38053 ft | 475 kts | 272° |
| 2026-05-06 22:17 | 55.58759 | -1.69672 | 38051 ft | 474 kts | 272° |
| 2026-05-06 22:17 | 55.58893 | -1.81314 | 38051 ft | 473 kts | 272° |
| 2026-05-06 22:18 | 55.59017 | -1.92950 | 38051 ft | 473 kts | 272° |
| 2026-05-06 22:18 | 55.59130 | -2.04569 | 38050 ft | 473 kts | 272° |
| 2026-05-06 22:19 | 55.59231 | -2.16194 | 38052 ft | 473 kts | 272° |
| 2026-05-06 22:19 | 55.59321 | -2.27806 | 38043 ft | 472 kts | 272° |
| 2026-05-06 22:20 | 55.59399 | -2.39386 | 38047 ft | 470 kts | 272° |
| 2026-05-06 22:20 | 55.59468 | -2.50921 | 38039 ft | 469 kts | 272° |
| 2026-05-06 22:21 | 55.59526 | -2.62441 | 38040 ft | 469 kts | 272° |
| 2026-05-06 22:21 | 55.59571 | -2.73971 | 38040 ft | 469 kts | 272° |
| 2026-05-06 22:22 | 55.59607 | -2.85497 | 38038 ft | 468 kts | 272° |
| 2026-05-06 22:22 | 55.59631 | -2.96986 | 38037 ft | 467 kts | 272° |
| 2026-05-06 22:23 | 55.59645 | -3.08462 | 38033 ft | 467 kts | 271° |
| 2026-05-06 22:23 | 55.59648 | -3.19950 | 38034 ft | 467 kts | 271° |
| 2026-05-06 22:24 | 55.59640 | -3.31425 | 38035 ft | 467 kts | 271° |
| 2026-05-06 22:24 | 55.59622 | -3.42897 | 38021 ft | 465 kts | 271° |
| 2026-05-06 22:25 | 55.59592 | -3.54321 | 38027 ft | 464 kts | 271° |
| 2026-05-06 22:25 | 55.59553 | -3.65734 | 38019 ft | 464 kts | 271° |
| 2026-05-06 22:26 | 55.59503 | -3.77147 | 38017 ft | 464 kts | 271° |
| 2026-05-06 22:26 | 55.59442 | -3.88549 | 38011 ft | 464 kts | 271° |
| 2026-05-06 22:27 | 55.59376 | -3.98034 | 38009 ft | 464 kts | 269° |
| 2026-05-06 22:27 | 55.58439 | -4.09318 | 38001 ft | 466 kts | 259° |
| 2026-05-06 22:28 | 55.56824 | -4.20422 | 38002 ft | 467 kts | 257° |
| 2026-05-06 22:28 | 55.55080 | -4.31476 | 37997 ft | 467 kts | 257° |
| 2026-05-06 22:29 | 55.53329 | -4.42513 | 37993 ft | 467 kts | 257° |
| 2026-05-06 22:29 | 55.51588 | -4.53547 | 38002 ft | 467 kts | 256° |
| 2026-05-06 22:30 | 55.49845 | -4.64584 | 38001 ft | 467 kts | 256° |
| 2026-05-06 22:30 | 55.48094 | -4.75606 | 37978 ft | 467 kts | 256° |
| 2026-05-06 22:31 | 55.46333 | -4.86613 | 37977 ft | 467 kts | 256° |
| 2026-05-06 22:31 | 55.44561 | -4.97617 | 37987 ft | 467 kts | 256° |
| 2026-05-06 22:32 | 55.42778 | -5.08617 | 37985 ft | 468 kts | 256° |
| 2026-05-06 22:32 | 55.40979 | -5.19636 | 37976 ft | 469 kts | 256° |
| 2026-05-06 22:33 | 55.39168 | -5.30665 | 37980 ft | 470 kts | 256° |
| 2026-05-06 22:33 | 55.37345 | -5.41698 | 37975 ft | 470 kts | 256° |
| 2026-05-06 22:34 | 55.35523 | -5.52659 | 37979 ft | 470 kts | 256° |
| 2026-05-06 22:34 | 55.33675 | -5.63701 | 37979 ft | 471 kts | 255° |
| 2026-05-06 22:35 | 55.31815 | -5.74748 | 37974 ft | 472 kts | 255° |
| 2026-05-06 22:35 | 55.29941 | -5.85802 | 37976 ft | 473 kts | 255° |
| 2026-05-06 22:36 | 55.28058 | -5.96842 | 37974 ft | 473 kts | 255° |
| 2026-05-06 22:36 | 55.26163 | -6.07884 | 37975 ft | 473 kts | 255° |
| 2026-05-06 22:37 | 55.24256 | -6.18928 | 37969 ft | 473 kts | 255° |
| 2026-05-06 22:37 | 55.22343 | -6.29942 | 37968 ft | 473 kts | 255° |
| 2026-05-06 22:38 | 55.20415 | -6.40965 | 37966 ft | 473 kts | 255° |
| 2026-05-06 22:38 | 55.18479 | -6.51972 | 37973 ft | 473 kts | 255° |
| 2026-05-06 22:39 | 55.16534 | -6.62965 | 37966 ft | 473 kts | 254° |
| 2026-05-06 22:39 | 55.14576 | -6.73967 | 37968 ft | 474 kts | 254° |
| 2026-05-06 22:40 | 55.12603 | -6.84980 | 37967 ft | 475 kts | 254° |
| 2026-05-06 22:40 | 55.10621 | -6.95984 | 37964 ft | 475 kts | 254° |
| 2026-05-06 22:41 | 55.07625 | -7.12482 | 37966 ft | 475 kts | 254° |
| 2026-05-06 22:42 | 55.05616 | -7.23466 | 37964 ft | 475 kts | 254° |
| 2026-05-06 22:42 | 55.03601 | -7.34423 | 37966 ft | 475 kts | 254° |
| 2026-05-06 22:43 | 55.01585 | -7.45319 | 37963 ft | 476 kts | 253° |
| 2026-05-06 22:43 | 54.99543 | -7.56287 | 37962 ft | 476 kts | 253° |
| 2026-05-06 22:44 | 54.97490 | -7.67255 | 37964 ft | 476 kts | 253° |
| 2026-05-06 22:44 | 54.95425 | -7.78216 | 37963 ft | 477 kts | 253° |
| 2026-05-06 22:45 | 54.93352 | -7.89164 | 37960 ft | 477 kts | 253° |
| 2026-05-06 22:45 | 54.91252 | -8.00186 | 37959 ft | 477 kts | 253° |
| 2026-05-06 22:46 | 54.89173 | -8.11037 | 37957 ft | 477 kts | 253° |
| 2026-05-06 22:46 | 54.87078 | -8.21909 | 37961 ft | 477 kts | 253° |
| 2026-05-06 22:47 | 54.84961 | -8.32832 | 37959 ft | 478 kts | 253° |
| 2026-05-06 22:47 | 54.82833 | -8.43750 | 37958 ft | 478 kts | 252° |
| 2026-05-06 22:48 | 54.80696 | -8.54655 | 37954 ft | 478 kts | 252° |
| 2026-05-06 22:48 | 54.78548 | -8.65549 | 37955 ft | 478 kts | 252° |
| 2026-05-06 22:49 | 54.76392 | -8.76431 | 37950 ft | 478 kts | 252° |
| 2026-05-06 22:49 | 54.74226 | -8.87298 | 37952 ft | 478 kts | 252° |
| 2026-05-06 22:50 | 54.72046 | -8.98170 | 37957 ft | 478 kts | 252° |
| 2026-05-06 22:50 | 54.69856 | -9.09037 | 37955 ft | 478 kts | 252° |
| 2026-05-06 22:51 | 54.67661 | -9.19871 | 37948 ft | 478 kts | 252° |
| 2026-05-06 22:51 | 54.65453 | -9.30709 | 37949 ft | 478 kts | 252° |
| 2026-05-06 22:52 | 54.63233 | -9.41542 | 37951 ft | 479 kts | 251° |
| 2026-05-06 22:52 | 54.61002 | -9.52385 | 37944 ft | 480 kts | 252° |
| 2026-05-06 22:53 | 54.58990 | -9.63375 | 37945 ft | 480 kts | 255° |
| 2026-05-06 22:53 | 54.57113 | -9.74438 | 37942 ft | 481 kts | 255° |
| 2026-05-06 22:54 | 54.55212 | -9.85410 | 37951 ft | 481 kts | 254° |
| 2026-05-06 22:54 | 54.53254 | -9.96420 | 37947 ft | 481 kts | 253° |
| 2026-05-06 22:55 | 54.51271 | -10.07421 | 37946 ft | 481 kts | 253° |
| 2026-05-06 22:55 | 54.49277 | -10.18420 | 37943 ft | 481 kts | 253° |
| 2026-05-06 22:56 | 54.47274 | -10.29407 | 37942 ft | 481 kts | 253° |
| 2026-05-06 22:56 | 54.45263 | -10.40384 | 37942 ft | 481 kts | 253° |
| 2026-05-06 22:57 | 54.43242 | -10.51346 | 37939 ft | 481 kts | 253° |
| 2026-05-06 22:57 | 54.41210 | -10.62303 | 37936 ft | 482 kts | 253° |
| 2026-05-06 22:58 | 54.39169 | -10.73244 | 37944 ft | 482 kts | 253° |
| 2026-05-06 22:58 | 54.37117 | -10.84182 | 37936 ft | 481 kts | 253° |
| 2026-05-06 22:59 | 54.35055 | -10.95110 | 37939 ft | 481 kts | 252° |
| 2026-05-06 22:59 | 54.32985 | -11.06016 | 37944 ft | 482 kts | 252° |
| 2026-05-06 23:00 | 54.30904 | -11.16918 | 37938 ft | 481 kts | 252° |
| 2026-05-06 23:00 | 54.28815 | -11.27804 | 37939 ft | 481 kts | 252° |
| 2026-05-06 23:01 | 54.26714 | -11.38681 | 37938 ft | 481 kts | 252° |
| 2026-05-06 23:01 | 54.24603 | -11.49555 | 37935 ft | 482 kts | 252° |
| 2026-05-06 23:02 | 54.22482 | -11.60415 | 37936 ft | 482 kts | 252° |
| 2026-05-06 23:02 | 54.20351 | -11.71265 | 37935 ft | 482 kts | 252° |
| 2026-05-06 23:03 | 54.18212 | -11.82100 | 37935 ft | 481 kts | 252° |
| 2026-05-06 23:03 | 54.16063 | -11.92921 | 37922 ft | 481 kts | 252° |
| 2026-05-06 23:04 | 54.13902 | -12.03743 | 37936 ft | 483 kts | 251° |
| 2026-05-06 23:04 | 54.11727 | -12.14574 | 37932 ft | 483 kts | 251° |
| 2026-05-06 23:05 | 54.09538 | -12.25417 | 37932 ft | 484 kts | 251° |
| 2026-05-06 23:05 | 54.07341 | -12.36238 | 37933 ft | 483 kts | 251° |
| 2026-05-06 23:06 | 54.05138 | -12.47031 | 37933 ft | 483 kts | 251° |
| 2026-05-06 23:06 | 54.02924 | -12.57818 | 37931 ft | 483 kts | 251° |
| 2026-05-06 23:07 | 54.00700 | -12.68597 | 37931 ft | 483 kts | 251° |
| 2026-05-06 23:07 | 53.98470 | -12.79345 | 37925 ft | 482 kts | 251° |
| 2026-05-06 23:08 | 53.96230 | -12.90086 | 37927 ft | 482 kts | 251° |
| 2026-05-06 23:08 | 53.93982 | -13.00804 | 37933 ft | 482 kts | 251° |
| 2026-05-06 23:09 | 53.91738 | -13.11452 | 37931 ft | 482 kts | 250° |
| 2026-05-06 23:09 | 53.89473 | -13.22136 | 37935 ft | 482 kts | 250° |
| 2026-05-06 23:10 | 53.87240 | -13.32622 | 37931 ft | 482 kts | 250° |
| 2026-05-06 23:10 | 53.84955 | -13.43290 | 37930 ft | 482 kts | 250° |
| 2026-05-06 23:11 | 53.82658 | -13.53960 | 37928 ft | 482 kts | 250° |
| 2026-05-06 23:11 | 53.80399 | -13.64400 | 37930 ft | 482 kts | 250° |
| 2026-05-06 23:12 | 53.78124 | -13.74861 | 37928 ft | 482 kts | 250° |
| 2026-05-06 23:12 | 53.75804 | -13.85476 | 37932 ft | 481 kts | 250° |
| 2026-05-06 23:13 | 53.73475 | -13.96074 | 37926 ft | 481 kts | 250° |
| 2026-05-06 23:13 | 53.71139 | -14.06650 | 37932 ft | 481 kts | 249° |
| 2026-05-06 23:14 | 53.69190 | -14.15439 | 37930 ft | 481 kts | 249° |
| 2026-05-06 23:14 | 53.66837 | -14.25995 | 37930 ft | 480 kts | 249° |
| 2026-05-06 23:15 | 53.64480 | -14.36516 | 37933 ft | 480 kts | 249° |
| 2026-05-06 23:15 | 53.62112 | -14.47029 | 37930 ft | 480 kts | 249° |
| 2026-05-06 23:16 | 53.59735 | -14.57534 | 37929 ft | 481 kts | 249° |
| 2026-05-06 23:16 | 53.57344 | -14.68045 | 37933 ft | 481 kts | 249° |
| 2026-05-06 23:17 | 53.54944 | -14.78547 | 37933 ft | 481 kts | 249° |
| 2026-05-06 23:17 | 53.52536 | -14.89033 | 37932 ft | 480 kts | 249° |
| 2026-05-06 23:18 | 53.50551 | -14.99741 | 37928 ft | 481 kts | 259° |
| 2026-05-06 23:18 | 53.50177 | -15.10957 | 37923 ft | 483 kts | 269° |
| 2026-05-06 23:19 | 53.50367 | -15.22232 | 37921 ft | 483 kts | 271° |
| 2026-05-06 23:19 | 53.50629 | -15.33510 | 37923 ft | 483 kts | 271° |
| 2026-05-06 23:20 | 53.50858 | -15.44782 | 37942 ft | 483 kts | 270° |
| 2026-05-06 23:20 | 53.51052 | -15.56056 | 37938 ft | 483 kts | 270° |
| 2026-05-06 23:21 | 53.51228 | -15.67331 | 37939 ft | 483 kts | 270° |
| 2026-05-06 23:21 | 53.51392 | -15.78608 | 37937 ft | 483 kts | 270° |
| 2026-05-06 23:22 | 53.51548 | -15.89894 | 37936 ft | 483 kts | 270° |
| 2026-05-06 23:22 | 53.51694 | -16.01187 | 37936 ft | 483 kts | 270° |
| 2026-05-06 23:23 | 53.51829 | -16.12480 | 37932 ft | 483 kts | 270° |
| 2026-05-06 23:23 | 53.51953 | -16.23784 | 37933 ft | 483 kts | 269° |
| 2026-05-06 23:24 | 53.52067 | -16.35068 | 37936 ft | 483 kts | 269° |
| 2026-05-06 23:24 | 53.52170 | -16.46366 | 37931 ft | 483 kts | 269° |
| 2026-05-06 23:25 | 53.52261 | -16.57591 | 37935 ft | 483 kts | 269° |
| 2026-05-06 23:25 | 53.52343 | -16.68893 | 37938 ft | 484 kts | 269° |
| 2026-05-06 23:26 | 53.52415 | -16.80268 | 37938 ft | 484 kts | 269° |
| 2026-05-06 23:26 | 53.52475 | -16.91508 | 37932 ft | 484 kts | 269° |
| 2026-05-06 23:27 | 53.52525 | -17.02903 | 37938 ft | 485 kts | 269° |
| 2026-05-06 23:27 | 53.52564 | -17.14148 | 37954 ft | 485 kts | 269° |
| 2026-05-06 23:28 | 53.52593 | -17.25473 | 37955 ft | 485 kts | 269° |
| 2026-05-06 23:28 | 53.52611 | -17.36807 | 37947 ft | 485 kts | 268° |
| 2026-05-06 23:29 | 53.52618 | -17.48161 | 37941 ft | 486 kts | 268° |
| 2026-05-06 23:29 | 53.52614 | -17.59510 | 37941 ft | 486 kts | 268° |
| 2026-05-06 23:30 | 53.52600 | -17.70873 | 37946 ft | 486 kts | 268° |
| 2026-05-06 23:30 | 53.52574 | -17.82228 | 37943 ft | 486 kts | 268° |
| 2026-05-06 23:31 | 53.52538 | -17.93586 | 37945 ft | 486 kts | 268° |
| 2026-05-06 23:31 | 53.52492 | -18.04960 | 37945 ft | 486 kts | 268° |
| 2026-05-06 23:32 | 53.52434 | -18.16314 | 37948 ft | 486 kts | 268° |
| 2026-05-06 23:32 | 53.52366 | -18.27684 | 37948 ft | 486 kts | 268° |
| 2026-05-06 23:33 | 53.52287 | -18.39050 | 37954 ft | 486 kts | 268° |
| 2026-05-06 23:33 | 53.52197 | -18.50418 | 37959 ft | 487 kts | 268° |
| 2026-05-06 23:34 | 53.52096 | -18.61782 | 37961 ft | 487 kts | 268° |
| 2026-05-06 23:34 | 53.51985 | -18.73149 | 37961 ft | 487 kts | 268° |
| 2026-05-06 23:35 | 53.51863 | -18.84523 | 37977 ft | 487 kts | 268° |
| 2026-05-06 23:35 | 53.51729 | -18.95908 | 37982 ft | 487 kts | 268° |
| 2026-05-06 23:36 | 53.51586 | -19.07209 | 37974 ft | 488 kts | 268° |
| 2026-05-06 23:36 | 53.51431 | -19.18613 | 37977 ft | 488 kts | 268° |
| 2026-05-06 23:37 | 53.51266 | -19.30003 | 37977 ft | 488 kts | 267° |
| 2026-05-06 23:37 | 53.51089 | -19.41400 | 37982 ft | 488 kts | 267° |
| 2026-05-06 23:38 | 53.50901 | -19.52788 | 37980 ft | 488 kts | 267° |
| 2026-05-06 23:38 | 53.50703 | -19.64194 | 37982 ft | 488 kts | 267° |
| 2026-05-06 23:39 | 53.50494 | -19.75586 | 37983 ft | 488 kts | 267° |
| 2026-05-06 23:39 | 53.50274 | -19.86987 | 37988 ft | 488 kts | 267° |
| 2026-05-06 23:40 | 53.50043 | -19.98388 | 37991 ft | 488 kts | 267° |
| 2026-05-06 23:40 | 53.49628 | -20.09754 | 37995 ft | 488 kts | 264° |
| 2026-05-06 23:41 | 53.48897 | -20.21095 | 37994 ft | 488 kts | 263° |
| 2026-05-06 23:41 | 53.48155 | -20.32429 | 37994 ft | 488 kts | 263° |
| 2026-05-06 23:42 | 53.47459 | -20.43686 | 37997 ft | 489 kts | 263° |
| 2026-05-06 23:42 | 53.46771 | -20.55039 | 37998 ft | 489 kts | 263° |
| 2026-05-06 23:43 | 53.46077 | -20.66385 | 37982 ft | 489 kts | 263° |
| 2026-05-06 23:43 | 53.45368 | -20.77742 | 38000 ft | 490 kts | 263° |
| 2026-05-06 23:44 | 53.44648 | -20.89098 | 38003 ft | 490 kts | 263° |
| 2026-05-06 23:44 | 53.43916 | -21.00458 | 38003 ft | 490 kts | 263° |
| 2026-05-06 23:45 | 53.43173 | -21.11814 | 38001 ft | 490 kts | 263° |
| 2026-05-06 23:45 | 53.42418 | -21.23176 | 37999 ft | 490 kts | 263° |
| 2026-05-06 23:46 | 53.41653 | -21.34531 | 38002 ft | 490 kts | 263° |
| 2026-05-06 23:46 | 53.40878 | -21.45885 | 38003 ft | 490 kts | 263° |
| 2026-05-06 23:47 | 53.40090 | -21.57245 | 38006 ft | 490 kts | 263° |
| 2026-05-06 23:47 | 53.39293 | -21.68591 | 38007 ft | 491 kts | 263° |
| 2026-05-06 23:48 | 53.38484 | -21.79935 | 38010 ft | 491 kts | 263° |
| 2026-05-06 23:48 | 53.37665 | -21.91281 | 38009 ft | 491 kts | 263° |
| 2026-05-06 23:49 | 53.36835 | -22.02616 | 38010 ft | 490 kts | 263° |
| 2026-05-06 23:49 | 53.36000 | -22.13870 | 38009 ft | 491 kts | 263° |
| 2026-05-06 23:50 | 53.35148 | -22.25206 | 38003 ft | 491 kts | 262° |
| 2026-05-06 23:50 | 53.33849 | -22.42220 | 38005 ft | 491 kts | 262° |
| 2026-05-06 23:51 | 53.32970 | -22.53546 | 38012 ft | 491 kts | 262° |
| 2026-05-06 23:51 | 53.32079 | -22.64877 | 38003 ft | 491 kts | 262° |
| 2026-05-06 23:52 | 53.31177 | -22.76213 | 37999 ft | 492 kts | 262° |
| 2026-05-06 23:52 | 53.30264 | -22.87555 | 37999 ft | 492 kts | 262° |
| 2026-05-06 23:53 | 53.29339 | -22.98892 | 38009 ft | 492 kts | 262° |
| 2026-05-06 23:53 | 53.28404 | -23.10226 | 38011 ft | 492 kts | 262° |
| 2026-05-06 23:54 | 53.27458 | -23.21555 | 38001 ft | 493 kts | 262° |
| 2026-05-06 23:54 | 53.26501 | -23.32885 | 37991 ft | 493 kts | 262° |
| 2026-05-06 23:55 | 53.25532 | -23.44220 | 37991 ft | 493 kts | 262° |
| 2026-05-06 23:55 | 53.24555 | -23.55522 | 37994 ft | 493 kts | 262° |
| 2026-05-06 23:56 | 53.23564 | -23.66857 | 37998 ft | 493 kts | 262° |
| 2026-05-06 23:56 | 53.22562 | -23.78182 | 37917 ft | 494 kts | 262° |
| 2026-05-06 23:57 | 53.22064 | -23.83768 | 38155 ft | 489 kts | 262° |
| 2026-05-06 23:57 | 53.21566 | -23.89321 | 38663 ft | 481 kts | 262° |
| 2026-05-06 23:57 | 53.21075 | -23.94761 | 38888 ft | 479 kts | 262° |
| 2026-05-06 23:57 | 53.20578 | -24.00241 | 38996 ft | 479 kts | 262° |
| 2026-05-06 23:58 | 53.19572 | -24.11254 | 39012 ft | 481 kts | 262° |
| 2026-05-06 23:58 | 53.18554 | -24.22282 | 39016 ft | 481 kts | 262° |
| 2026-05-06 23:59 | 53.17526 | -24.33312 | 39022 ft | 485 kts | 262° |
| 2026-05-06 23:59 | 53.16475 | -24.44470 | 39008 ft | 489 kts | 262° |
| 2026-05-07 00:00 | 53.15408 | -24.55674 | 39016 ft | 492 kts | 262° |
| 2026-05-07 00:00 | 53.14500 | -24.65114 | 39020 ft | 493 kts | 262° |
| 2026-05-07 00:01 | 53.13225 | -24.78245 | 39024 ft | 495 kts | 261° |
| 2026-05-07 00:01 | 53.12111 | -24.89587 | 39019 ft | 496 kts | 261° |
| 2026-05-07 00:02 | 53.10987 | -25.00917 | 39021 ft | 497 kts | 261° |
| 2026-05-07 00:02 | 53.10042 | -25.10344 | 39026 ft | 497 kts | 261° |
| 2026-05-07 00:03 | 53.08895 | -25.21700 | 39004 ft | 497 kts | 261° |
| 2026-05-07 00:03 | 53.07736 | -25.33057 | 39022 ft | 498 kts | 261° |
| 2026-05-07 00:04 | 53.06567 | -25.44397 | 39025 ft | 498 kts | 261° |
| 2026-05-07 00:04 | 53.05386 | -25.55749 | 39024 ft | 498 kts | 261° |
| 2026-05-07 00:05 | 53.04193 | -25.67099 | 39022 ft | 498 kts | 261° |
| 2026-05-07 00:05 | 53.02989 | -25.78444 | 39021 ft | 499 kts | 261° |
| 2026-05-07 00:06 | 53.01775 | -25.89784 | 39021 ft | 499 kts | 261° |
| 2026-05-07 00:06 | 53.00548 | -26.01132 | 39026 ft | 499 kts | 261° |
| 2026-05-07 00:07 | 52.99318 | -26.12408 | 39026 ft | 499 kts | 261° |
| 2026-05-07 00:07 | 52.98070 | -26.23735 | 39025 ft | 499 kts | 261° |
| 2026-05-07 00:08 | 52.96810 | -26.35065 | 39023 ft | 499 kts | 261° |
| 2026-05-07 00:08 | 52.95539 | -26.46400 | 39023 ft | 500 kts | 261° |
| 2026-05-07 00:09 | 52.94258 | -26.57723 | 39022 ft | 500 kts | 261° |
| 2026-05-07 00:09 | 52.92964 | -26.69052 | 39023 ft | 500 kts | 261° |
| 2026-05-07 00:10 | 52.91661 | -26.80361 | 39030 ft | 500 kts | 261° |
| 2026-05-07 00:10 | 52.90347 | -26.91667 | 39023 ft | 500 kts | 261° |
| 2026-05-07 00:11 | 52.89021 | -27.02974 | 39029 ft | 500 kts | 260° |
| 2026-05-07 00:11 | 52.87685 | -27.14264 | 39018 ft | 500 kts | 260° |
| 2026-05-07 00:12 | 52.86338 | -27.25557 | 39021 ft | 500 kts | 261° |
| 2026-05-07 00:12 | 52.84979 | -27.36856 | 39022 ft | 501 kts | 260° |
| 2026-05-07 00:13 | 52.83609 | -27.48143 | 39023 ft | 500 kts | 261° |
| 2026-05-07 00:13 | 52.82229 | -27.59427 | 39024 ft | 501 kts | 261° |
| 2026-05-07 00:14 | 52.80837 | -27.70700 | 39029 ft | 501 kts | 260° |
| 2026-05-07 00:14 | 52.79434 | -27.81967 | 39029 ft | 501 kts | 260° |
| 2026-05-07 00:15 | 52.78018 | -27.93255 | 39026 ft | 501 kts | 260° |
| 2026-05-07 00:15 | 52.76602 | -28.04452 | 39025 ft | 502 kts | 260° |
| 2026-05-07 00:16 | 52.75156 | -28.15793 | 39024 ft | 502 kts | 260° |
| 2026-05-07 00:16 | 52.73716 | -28.26983 | 39014 ft | 502 kts | 260° |
| 2026-05-07 00:17 | 52.72251 | -28.38263 | 39020 ft | 502 kts | 260° |
| 2026-05-07 00:17 | 52.70781 | -28.49533 | 39015 ft | 503 kts | 259° |
| 2026-05-07 00:18 | 52.70282 | -28.53336 | 39016 ft | 503 kts | 261° |